Time;durP1;ratioP1;P1;durP2;ratioP2;P2;SDS_P1;SDS_P2;PMS_P1;PMS_P2;Temp;Humidity;BMP_temperature;BMP_pressure;BME280_temperature;BME280_humidity;BME280_pressure;Samples;Min_cycle;Max_cycle;Signal;HPM_P1;HPM_P2
2023/04/06 00:00:48;;;;;;;11.05;5.63;;;;;;;;;;7390095;19;19998;-76
2023/04/06 00:03:13;;;;;;;8.73;5.40;;;;;;;;;;7394371;19;20479;-77
2023/04/06 00:05:38;;;;;;;11.00;5.15;;;;;;;;;;7392689;19;19998;-77
2023/04/06 00:08:04;;;;;;;17.20;5.97;;;;;;;;;;7391862;19;19994;-78
2023/04/06 00:10:29;;;;;;;12.55;5.75;;;;;;;;;;7388624;19;20477;-76
2023/04/06 00:12:56;;;;;;;9.52;5.20;;;;;;;;;;7391222;19;20014;-77
2023/04/06 00:15:21;;;;;;;13.57;5.10;;;;;;;;;;7389310;19;19999;-76
2023/04/06 00:17:47;;;;;;;13.15;4.95;;;;;;;;;;7389280;19;19999;-78
2023/04/06 00:20:12;;;;;;;9.43;5.43;;;;;;;;;;7389682;19;20002;-77
2023/04/06 00:22:37;;;;;;;8.82;4.72;;;;;;;;;;7390313;19;19995;-78
2023/04/06 00:25:03;;;;;;;10.88;5.63;;;;;;;;;;7390571;19;19991;-77
2023/04/06 00:27:29;;;;;;;12.20;5.50;;;;;;;;;;7390409;19;20112;-77
2023/04/06 00:29:54;;;;;;;11.43;4.82;;;;;;;;;;7387778;19;20002;-76
2023/04/06 00:32:20;;;;;;;9.77;4.45;;;;;;;;;;7394058;19;19994;-77
2023/04/06 00:34:45;;;;;;;9.30;4.40;;;;;;;;;;7390369;19;20220;-77
2023/04/06 00:37:11;;;;;;;12.38;5.20;;;;;;;;;;7387233;19;19994;-77
2023/04/06 00:39:37;;;;;;;10.98;5.35;;;;;;;;;;7388394;19;20481;-77
2023/04/06 00:42:10;;;;;;;9.30;5.05;;;;;;;;;;7389165;19;19998;-77
2023/04/06 00:44:35;;;;;;;12.00;5.30;;;;;;;;;;7389492;19;19994;-77
2023/04/06 00:47:01;;;;;;;10.70;5.18;;;;;;;;;;7389308;19;20433;-77
2023/04/06 00:49:26;;;;;;;13.43;5.60;;;;;;;;;;7393272;19;19995;-77
2023/04/06 00:51:52;;;;;;;11.90;5.25;;;;;;;;;;7390528;19;20511;-76
2023/04/06 00:54:18;;;;;;;9.13;4.65;;;;;;;;;;7389699;19;20003;-76
2023/04/06 00:56:43;;;;;;;10.60;5.80;;;;;;;;;;7387973;19;20066;-77
2023/04/06 00:59:10;;;;;;;14.25;5.25;;;;;;;;;;7389101;19;20002;-77
2023/04/06 01:01:35;;;;;;;13.65;5.55;;;;;;;;;;7387736;19;20019;-77
2023/04/06 01:04:02;;;;;;;13.60;5.43;;;;;;;;;;7387373;19;20003;-78
2023/04/06 01:06:28;;;;;;;11.27;5.25;;;;;;;;;;7389819;19;20344;-77
2023/04/06 01:08:53;;;;;;;10.63;5.50;;;;;;;;;;7388957;19;19995;-77
2023/04/06 01:11:18;;;;;;;11.02;4.82;;;;;;;;;;7387120;19;19999;-77
2023/04/06 01:13:44;;;;;;;12.10;5.88;;;;;;;;;;7387145;19;20006;-77
2023/04/06 01:16:09;;;;;;;12.57;5.55;;;;;;;;;;7385883;19;20030;-77
2023/04/06 01:18:35;;;;;;;14.55;5.28;;;;;;;;;;7387181;19;20016;-77
2023/04/06 01:21:01;;;;;;;9.15;5.30;;;;;;;;;;7387499;19;20014;-76
2023/04/06 01:23:26;;;;;;;10.50;5.18;;;;;;;;;;7389080;19;20026;-75
2023/04/06 01:25:52;;;;;;;10.35;5.50;;;;;;;;;;7388814;19;19991;-76
2023/04/06 01:28:17;;;;;;;11.18;5.25;;;;;;;;;;7388080;19;19995;-78
2023/04/06 01:30:43;;;;;;;11.63;6.22;;;;;;;;;;7387113;19;20002;-77
2023/04/06 01:33:08;;;;;;;11.38;5.90;;;;;;;;;;7388759;19;20078;-77
2023/04/06 01:35:33;;;;;;;11.77;6.53;;;;;;;;;;7392177;19;19998;-77
2023/04/06 01:37:59;;;;;;;8.95;5.50;;;;;;;;;;7388668;19;20358;-77
2023/04/06 01:40:24;;;;;;;10.82;5.75;;;;;;;;;;7387264;19;19999;-77
2023/04/06 01:42:50;;;;;;;10.68;5.45;;;;;;;;;;7386843;19;19998;-77
2023/04/06 01:45:15;;;;;;;16.73;5.93;;;;;;;;;;7388670;19;20452;-76
2023/04/06 01:47:41;;;;;;;12.95;5.95;;;;;;;;;;7388166;19;20536;-78
2023/04/06 01:50:07;;;;;;;10.93;6.15;;;;;;;;;;7387262;19;20004;-78
2023/04/06 01:52:33;;;;;;;11.70;6.25;;;;;;;;;;7392203;19;20392;-78
2023/04/06 01:54:58;;;;;;;11.15;6.13;;;;;;;;;;7388008;19;19998;-77
2023/04/06 01:57:25;;;;;;;11.48;6.38;;;;;;;;;;7386355;19;19995;-77
2023/04/06 01:59:50;;;;;;;15.35;6.63;;;;;;;;;;7390798;19;20018;-78
2023/04/06 02:02:15;;;;;;;18.20;6.78;;;;;;;;;;7387271;19;19999;-77
2023/04/06 02:04:41;;;;;;;11.52;6.25;;;;;;;;;;7388373;19;20009;-78
2023/04/06 02:07:06;;;;;;;12.40;6.85;;;;;;;;;;7387940;19;20009;-78
2023/04/06 02:09:31;;;;;;;15.25;6.45;;;;;;;;;;7386297;19;20005;-77
2023/04/06 02:11:57;;;;;;;15.65;7.13;;;;;;;;;;7384121;19;20002;-78
2023/04/06 02:14:25;;;;;;;14.38;7.30;;;;;;;;;;7386699;19;20181;-77
2023/04/06 02:16:51;;;;;;;13.02;7.15;;;;;;;;;;7386597;19;19995;-77
2023/04/06 02:19:16;;;;;;;16.77;7.50;;;;;;;;;;7387804;19;20022;-78
2023/04/06 02:21:42;;;;;;;16.65;7.68;;;;;;;;;;7384976;19;20002;-77
2023/04/06 02:24:07;;;;;;;12.48;6.85;;;;;;;;;;7387896;19;20066;-78
2023/04/06 02:26:32;;;;;;;13.45;6.90;;;;;;;;;;7387362;19;20464;-76
2023/04/06 02:28:58;;;;;;;11.68;6.65;;;;;;;;;;7381838;19;20354;-77
2023/04/06 02:31:23;;;;;;;11.30;6.20;;;;;;;;;;7389621;19;20216;-78
2023/04/06 02:33:49;;;;;;;12.40;6.55;;;;;;;;;;7386743;19;20072;-77
2023/04/06 02:36:14;;;;;;;14.00;7.03;;;;;;;;;;7385859;19;20005;-76
2023/04/06 02:38:40;;;;;;;16.45;7.50;;;;;;;;;;7385437;19;20066;-77
2023/04/06 02:41:05;;;;;;;13.32;7.03;;;;;;;;;;7387061;19;20475;-77
2023/04/06 02:43:31;;;;;;;14.55;6.88;;;;;;;;;;7397288;19;20003;-77
2023/04/06 02:45:56;;;;;;;13.48;6.53;;;;;;;;;;7398258;19;19999;-78
2023/04/06 02:48:21;;;;;;;13.35;6.95;;;;;;;;;;7393746;19;20019;-78
2023/04/06 02:50:47;;;;;;;11.35;6.57;;;;;;;;;;7393600;19;20051;-78
2023/04/06 02:53:12;;;;;;;19.80;7.88;;;;;;;;;;7394400;19;20063;-77
2023/04/06 02:55:37;;;;;;;12.52;7.13;;;;;;;;;;7397246;19;20023;-78
2023/04/06 02:58:03;;;;;;;12.40;7.53;;;;;;;;;;7394313;19;20008;-78
2023/04/06 03:00:28;;;;;;;13.60;7.43;;;;;;;;;;7391981;19;20365;-77
2023/04/06 03:02:53;;;;;;;15.30;7.25;;;;;;;;;;7393463;19;20006;-78
2023/04/06 03:05:19;;;;;;;14.65;7.07;;;;;;;;;;7395658;19;20011;-79
2023/04/06 03:07:44;;;;;;;16.95;7.80;;;;;;;;;;7393521;19;19999;-78
2023/04/06 03:10:11;;;;;;;11.32;6.80;;;;;;;;;;7393160;19;20469;-78
2023/04/06 03:12:36;;;;;;;14.52;6.25;;;;;;;;;;7392785;19;20003;-78
2023/04/06 03:15:01;;;;;;;14.45;7.10;;;;;;;;;;7393897;19;20007;-77
2023/04/06 03:17:27;;;;;;;15.80;7.32;;;;;;;;;;7392801;19;20022;-77
2023/04/06 03:19:52;;;;;;;14.05;6.82;;;;;;;;;;7393513;19;20114;-79
2023/04/06 03:22:19;;;;;;;14.32;6.75;;;;;;;;;;7392547;19;20036;-79
2023/04/06 03:24:44;;;;;;;13.93;7.35;;;;;;;;;;7392873;19;20001;-77
2023/04/06 03:27:10;;;;;;;13.45;6.60;;;;;;;;;;7393045;19;20002;-77
2023/04/06 03:29:35;;;;;;;18.90;7.22;;;;;;;;;;7392888;19;20006;-79
2023/04/06 03:32:00;;;;;;;13.25;6.55;;;;;;;;;;7392533;19;20003;-78
2023/04/06 03:34:26;;;;;;;11.68;6.15;;;;;;;;;;7392322;19;19995;-78
2023/04/06 03:36:51;;;;;;;13.32;6.45;;;;;;;;;;7390391;19;20353;-78
2023/04/06 03:39:16;;;;;;;16.38;7.35;;;;;;;;;;7392159;19;20022;-78
2023/04/06 03:41:43;;;;;;;11.65;6.22;;;;;;;;;;7390019;19;20443;-78
2023/04/06 03:44:08;;;;;;;11.48;6.38;;;;;;;;;;7391231;19;20003;-77
2023/04/06 03:46:33;;;;;;;18.40;6.78;;;;;;;;;;7395247;19;20015;-77
2023/04/06 03:48:59;;;;;;;15.95;6.38;;;;;;;;;;7391921;19;20010;-78
2023/04/06 03:51:25;;;;;;;13.70;6.60;;;;;;;;;;7387097;19;20014;-77
2023/04/06 03:53:50;;;;;;;13.63;6.30;;;;;;;;;;7389747;19;20006;-76
2023/04/06 03:56:15;;;;;;;13.35;6.88;;;;;;;;;;7390941;19;20011;-78
2023/04/06 03:58:41;;;;;;;14.70;6.35;;;;;;;;;;7392359;19;20480;-78
2023/04/06 04:01:06;;;;;;;11.95;6.30;;;;;;;;;;7390016;19;20023;-68
2023/04/06 04:03:31;;;;;;;19.90;6.78;;;;;;;;;;7389710;19;20002;-68
2023/04/06 04:05:57;;;;;;;17.52;6.80;;;;;;;;;;7389530;19;20478;-68
2023/04/06 04:08:24;;;;;;;13.70;6.00;;;;;;;;;;7389540;19;20074;-69
2023/04/06 04:10:50;;;;;;;12.60;6.63;;;;;;;;;;7388398;19;20055;-67
2023/04/06 04:13:15;;;;;;;14.07;6.05;;;;;;;;;;7387460;19;19998;-67
2023/04/06 04:15:40;;;;;;;13.20;6.57;;;;;;;;;;7388975;19;19999;-67
2023/04/06 04:18:06;;;;;;;12.35;6.20;;;;;;;;;;7390071;19;20420;-69
2023/04/06 04:20:31;;;;;;;13.05;6.55;;;;;;;;;;7388614;19;20567;-68
2023/04/06 04:22:57;;;;;;;13.20;6.50;;;;;;;;;;7389923;19;20013;-67
2023/04/06 04:25:23;;;;;;;14.85;6.68;;;;;;;;;;7390082;19;19990;-69
2023/04/06 04:27:48;;;;;;;14.95;6.55;;;;;;;;;;7390225;19;19994;-68
2023/04/06 04:30:14;;;;;;;12.07;5.65;;;;;;;;;;7387159;19;20468;-68
2023/04/06 04:32:39;;;;;;;11.98;6.38;;;;;;;;;;7391306;19;20074;-67
2023/04/06 04:35:05;;;;;;;10.73;6.00;;;;;;;;;;7390070;19;20461;-67
2023/04/06 04:37:35;;;;;;;9.82;5.93;;;;;;;;;;7385447;19;20036;-68
2023/04/06 04:40:00;;;;;;;16.23;6.68;;;;;;;;;;7390172;19;20006;-68
2023/04/06 04:42:25;;;;;;;12.77;6.35;;;;;;;;;;7391478;19;19999;-68
2023/04/06 04:44:51;;;;;;;12.73;6.35;;;;;;;;;;7390979;19;20016;-68
2023/04/06 04:47:16;;;;;;;11.55;6.30;;;;;;;;;;7392629;19;19995;-68
2023/04/06 04:49:41;;;;;;;10.85;6.10;;;;;;;;;;7390570;19;20085;-67
2023/04/06 04:52:07;;;;;;;14.95;6.18;;;;;;;;;;7390844;19;20026;-68
2023/04/06 04:54:32;;;;;;;13.20;6.28;;;;;;;;;;7387014;19;20369;-67
2023/04/06 04:56:57;;;;;;;10.32;5.57;;;;;;;;;;7384005;19;19998;-69
2023/04/06 04:59:23;;;;;;;12.52;5.25;;;;;;;;;;7385999;19;20103;-68
2023/04/06 05:01:48;;;;;;;14.90;6.28;;;;;;;;;;7387194;19;20054;-68
2023/04/06 05:04:14;;;;;;;10.27;5.50;;;;;;;;;;7385785;19;19998;-68
2023/04/06 05:06:39;;;;;;;14.52;5.57;;;;;;;;;;7386772;19;20593;-67
2023/04/06 05:09:04;;;;;;;10.52;5.80;;;;;;;;;;7387628;19;20452;-68
2023/04/06 05:11:30;;;;;;;12.85;5.35;;;;;;;;;;7385211;19;20003;-68
2023/04/06 05:13:56;;;;;;;9.73;5.47;;;;;;;;;;7389894;19;19994;-67
2023/04/06 05:16:21;;;;;;;10.68;5.57;;;;;;;;;;7387395;19;20026;-67
2023/04/06 05:18:47;;;;;;;12.88;6.40;;;;;;;;;;7388270;19;20058;-68
2023/04/06 05:21:13;;;;;;;15.30;6.28;;;;;;;;;;7386727;19;20007;-68
2023/04/06 05:23:38;;;;;;;11.77;5.47;;;;;;;;;;7388626;19;20014;-68
2023/04/06 05:26:04;;;;;;;12.63;6.05;;;;;;;;;;7388322;19;19991;-68
2023/04/06 05:28:30;;;;;;;12.63;5.78;;;;;;;;;;7389543;19;20046;-68
2023/04/06 05:30:56;;;;;;;13.93;6.22;;;;;;;;;;7386820;19;20460;-68
2023/04/06 05:33:22;;;;;;;10.88;5.50;;;;;;;;;;7389186;19;20366;-69
2023/04/06 05:35:47;;;;;;;11.88;6.00;;;;;;;;;;7390439;19;19994;-69
2023/04/06 05:38:13;;;;;;;14.68;6.22;;;;;;;;;;7390203;19;19996;-68
2023/04/06 05:40:40;;;;;;;12.57;5.78;;;;;;;;;;7384980;19;20007;-68
2023/04/06 05:43:06;;;;;;;12.27;5.22;;;;;;;;;;7387197;19;20002;-68
2023/04/06 05:45:32;;;;;;;15.27;6.53;;;;;;;;;;7381012;19;20006;-68
2023/04/06 05:47:57;;;;;;;15.75;6.38;;;;;;;;;;7386299;19;20002;-67
2023/04/06 05:50:22;;;;;;;13.25;5.72;;;;;;;;;;7383882;19;19998;-68
2023/04/06 05:52:48;;;;;;;11.90;6.55;;;;;;;;;;7386626;19;20050;-69
2023/04/06 05:55:13;;;;;;;12.45;6.00;;;;;;;;;;7382167;19;20469;-69
2023/04/06 05:57:39;;;;;;;12.55;5.95;;;;;;;;;;7382209;19;19995;-69
2023/04/06 06:00:08;;;;;;;10.57;5.75;;;;;;;;;;7382775;19;20007;-68
2023/04/06 06:02:34;;;;;;;10.57;5.45;;;;;;;;;;7386363;19;20032;-68
2023/04/06 06:04:59;;;;;;;10.07;5.25;;;;;;;;;;7387060;19;19999;-68
2023/04/06 06:07:25;;;;;;;10.70;5.15;;;;;;;;;;7382942;19;20022;-68
2023/04/06 06:09:50;;;;;;;9.77;5.05;;;;;;;;;;7384617;19;20005;-68
2023/04/06 06:12:16;;;;;;;11.63;5.03;;;;;;;;;;7382591;19;20016;-68
2023/04/06 06:14:41;;;;;;;9.80;4.90;;;;;;;;;;7387255;19;20026;-68
2023/04/06 06:17:07;;;;;;;10.30;5.50;;;;;;;;;;7389539;19;20002;-68
2023/04/06 06:19:33;;;;;;;10.88;5.22;;;;;;;;;;7394190;19;19990;-68
2023/04/06 06:21:59;;;;;;;11.30;5.22;;;;;;;;;;7390511;19;20026;-68
2023/04/06 06:24:25;;;;;;;11.48;5.55;;;;;;;;;;7393851;19;19998;-68
2023/04/06 06:26:50;;;;;;;10.65;4.88;;;;;;;;;;7396029;19;19995;-67
2023/04/06 06:29:16;;;;;;;10.20;5.32;;;;;;;;;;7393576;19;20001;-68
2023/04/06 06:31:41;;;;;;;9.32;5.65;;;;;;;;;;7390676;19;20015;-69
2023/04/06 06:34:06;;;;;;;13.65;5.45;;;;;;;;;;7394329;19;19997;-67
2023/04/06 06:36:32;;;;;;;9.90;4.82;;;;;;;;;;7392203;19;20018;-68
2023/04/06 06:38:58;;;;;;;13.07;6.00;;;;;;;;;;7393385;19;19995;-68
2023/04/06 06:41:25;;;;;;;10.43;5.53;;;;;;;;;;7394211;19;20002;-67
2023/04/06 06:43:51;;;;;;;10.25;5.65;;;;;;;;;;7393135;19;20002;-68
2023/04/06 06:46:16;;;;;;;11.55;5.90;;;;;;;;;;7392632;19;19999;-68
2023/04/06 06:48:42;;;;;;;9.60;5.65;;;;;;;;;;7390675;19;19990;-68
2023/04/06 06:51:09;;;;;;;9.77;5.18;;;;;;;;;;7389572;19;20006;-68
2023/04/06 06:53:35;;;;;;;12.65;5.97;;;;;;;;;;7393091;19;20487;-67
2023/04/06 06:56:00;;;;;;;9.45;5.63;;;;;;;;;;7392291;19;19995;-68
2023/04/06 06:58:26;;;;;;;13.25;5.55;;;;;;;;;;7390952;19;20416;-68
2023/04/06 07:00:56;;;;;;;12.98;6.28;;;;;;;;;;7391636;19;20371;-67
2023/04/06 07:03:21;;;;;;;12.43;6.45;;;;;;;;;;7392216;19;20001;-68
2023/04/06 07:05:52;;;;;;;11.32;5.93;;;;;;;;;;7392297;19;19998;-68
2023/04/06 07:08:19;;;;;;;8.95;5.38;;;;;;;;;;7392759;19;20009;-67
2023/04/06 07:10:44;;;;;;;13.10;6.25;;;;;;;;;;7391168;19;20029;-68
2023/04/06 07:13:10;;;;;;;11.93;5.90;;;;;;;;;;7393583;19;20018;-68
2023/04/06 07:15:35;;;;;;;11.50;6.13;;;;;;;;;;7389570;19;20416;-67
2023/04/06 07:18:01;;;;;;;13.88;6.45;;;;;;;;;;7389562;19;20037;-67
2023/04/06 07:20:27;;;;;;;14.13;7.13;;;;;;;;;;7391991;19;20013;-69
2023/04/06 07:22:56;;;;;;;9.13;5.07;;;;;;;;;;7396024;19;20072;-68
2023/04/06 07:25:21;;;;;;;12.07;6.50;;;;;;;;;;7391831;19;19999;-67
2023/04/06 07:27:47;;;;;;;9.43;4.95;;;;;;;;;;7386465;19;20453;-67
2023/04/06 07:30:13;;;;;;;17.95;6.57;;;;;;;;;;7392867;19;20070;-66
2023/04/06 07:32:38;;;;;;;9.95;5.75;;;;;;;;;;7387637;19;20002;-68
2023/04/06 07:35:04;;;;;;;13.27;6.97;;;;;;;;;;7369347;19;20002;-67
2023/04/06 07:37:30;;;;;;;11.13;6.22;;;;;;;;;;7388630;19;20006;-68
2023/04/06 07:39:55;;;;;;;13.10;6.43;;;;;;;;;;7392774;19;20002;-68
2023/04/06 07:42:20;;;;;;;13.60;6.25;;;;;;;;;;7391235;19;19995;-67
2023/04/06 07:44:46;;;;;;;11.00;6.30;;;;;;;;;;7379850;19;20030;-67
2023/04/06 07:47:11;;;;;;;13.18;6.88;;;;;;;;;;7393663;19;20401;-67
2023/04/06 07:49:36;;;;;;;10.52;6.38;;;;;;;;;;7391676;19;20069;-68
2023/04/06 07:52:02;;;;;;;11.63;6.50;;;;;;;;;;7390739;19;20344;-67
2023/04/06 07:54:28;;;;;;;13.05;6.28;;;;;;;;;;7393235;19;20006;-67
2023/04/06 07:56:53;;;;;;;16.70;6.72;;;;;;;;;;7393637;19;19998;-67
2023/04/06 07:59:19;;;;;;;9.98;6.07;;;;;;;;;;7393752;19;20340;-67
2023/04/06 08:01:44;;;;;;;10.65;6.28;;;;;;;;;;7390288;19;20002;-68
2023/04/06 08:04:09;;;;;;;11.50;6.35;;;;;;;;;;7391881;19;20032;-67
2023/04/06 08:06:36;;;;;;;9.45;6.15;;;;;;;;;;7393644;19;20005;-68
2023/04/06 08:09:01;;;;;;;11.98;6.80;;;;;;;;;;7394922;19;20007;-68
2023/04/06 08:11:27;;;;;;;8.10;5.57;;;;;;;;;;7392546;19;19994;-67
2023/04/06 08:13:52;;;;;;;13.65;6.85;;;;;;;;;;7390933;19;20010;-67
2023/04/06 08:16:18;;;;;;;11.60;6.35;;;;;;;;;;7390100;19;20342;-67
2023/04/06 08:18:43;;;;;;;10.45;6.65;;;;;;;;;;7394211;19;20320;-68
2023/04/06 08:21:09;;;;;;;10.30;6.00;;;;;;;;;;7390251;19;20011;-67
2023/04/06 08:23:34;;;;;;;10.60;5.95;;;;;;;;;;7391461;19;20042;-68
2023/04/06 08:26:00;;;;;;;10.50;6.55;;;;;;;;;;7391980;19;20003;-68
2023/04/06 08:28:25;;;;;;;12.85;6.35;;;;;;;;;;7393546;19;20013;-68
2023/04/06 08:30:51;;;;;;;15.40;6.75;;;;;;;;;;7390199;19;20006;-67
2023/04/06 08:33:16;;;;;;;9.75;6.32;;;;;;;;;;7390375;19;20017;-68
2023/04/06 08:35:41;;;;;;;9.57;6.18;;;;;;;;;;7390020;19;20001;-67
2023/04/06 08:38:07;;;;;;;12.25;6.65;;;;;;;;;;7390079;19;20318;-67
2023/04/06 08:40:39;;;;;;;9.85;6.65;;;;;;;;;;7390881;19;20267;-68
2023/04/06 08:43:11;;;;;;;12.77;6.97;;;;;;;;;;7389464;19;20475;-67
2023/04/06 08:45:38;;;;;;;17.05;7.38;;;;;;;;;;7389815;19;19998;-68
2023/04/06 08:48:06;;;;;;;12.40;6.53;;;;;;;;;;7391386;19;20010;-67
2023/04/06 08:50:33;;;;;;;13.40;7.10;;;;;;;;;;7390487;19;20003;-67
2023/04/06 08:52:59;;;;;;;9.70;6.60;;;;;;;;;;7393092;19;19999;-68
2023/04/06 08:55:24;;;;;;;11.07;6.75;;;;;;;;;;7388929;19;20002;-67
2023/04/06 08:57:53;;;;;;;10.18;6.68;;;;;;;;;;7387372;19;20010;-67
2023/04/06 09:00:19;;;;;;;11.13;6.40;;;;;;;;;;7388655;19;20014;-68
2023/04/06 09:02:45;;;;;;;11.32;6.80;;;;;;;;;;7391813;19;20003;-67
2023/04/06 09:05:11;;;;;;;12.90;7.53;;;;;;;;;;7386136;19;20082;-67
2023/04/06 09:07:37;;;;;;;11.43;7.28;;;;;;;;;;7391578;19;20019;-68
2023/04/06 09:10:04;;;;;;;8.65;5.53;;;;;;;;;;7390535;19;20006;-67
2023/04/06 09:12:31;;;;;;;11.45;6.90;;;;;;;;;;7390787;19;20395;-68
2023/04/06 09:14:57;;;;;;;14.40;7.15;;;;;;;;;;7390384;19;20350;-67
2023/04/06 09:17:27;;;;;;;13.05;7.53;;;;;;;;;;7386897;19;20098;-67
2023/04/06 09:19:53;;;;;;;16.08;7.15;;;;;;;;;;7388121;19;20022;-68
2023/04/06 09:22:18;;;;;;;14.80;7.78;;;;;;;;;;7387431;19;19999;-67
2023/04/06 09:24:50;;;;;;;8.63;5.82;;;;;;;;;;7391530;19;20015;-68
2023/04/06 09:27:15;;;;;;;12.45;6.82;;;;;;;;;;7389023;19;20009;-68
2023/04/06 09:29:41;;;;;;;12.23;7.15;;;;;;;;;;7389394;19;20002;-68
2023/04/06 09:32:12;;;;;;;12.63;7.60;;;;;;;;;;7387273;19;20037;-67
2023/04/06 09:34:40;;;;;;;9.27;6.82;;;;;;;;;;7388532;19;19994;-66
2023/04/06 09:37:13;;;;;;;13.10;7.28;;;;;;;;;;7388554;19;19999;-67
2023/04/06 09:39:38;;;;;;;10.73;6.95;;;;;;;;;;7389290;19;20540;-67
2023/04/06 09:42:04;;;;;;;13.68;7.43;;;;;;;;;;7384923;19;20015;-68
2023/04/06 09:44:30;;;;;;;12.00;7.75;;;;;;;;;;7388699;19;20010;-67
2023/04/06 09:46:55;;;;;;;10.68;7.40;;;;;;;;;;7391657;19;20074;-68
2023/04/06 09:49:22;;;;;;;10.85;7.55;;;;;;;;;;7393899;19;20532;-67
2023/04/06 09:51:58;;;;;;;12.50;7.30;;;;;;;;;;7394290;19;20020;-68
2023/04/06 09:54:28;;;;;;;11.68;7.45;;;;;;;;;;7397831;19;19999;-67
2023/04/06 09:57:16;;;;;;;12.10;8.02;;;;;;;;;;7397370;19;20006;-67
2023/04/06 09:59:53;;;;;;;11.02;7.70;;;;;;;;;;7398256;19;20341;-67
2023/04/06 10:02:37;;;;;;;12.80;8.00;;;;;;;;;;7369042;19;20006;-67
2023/04/06 10:05:07;;;;;;;11.23;7.47;;;;;;;;;;7397482;19;20007;-67
2023/04/06 10:07:36;;;;;;;12.35;8.35;;;;;;;;;;7395610;19;20325;-67
2023/04/06 10:10:03;;;;;;;14.52;8.30;;;;;;;;;;7392509;19;20321;-67
2023/04/06 10:12:28;;;;;;;13.70;8.38;;;;;;;;;;7393881;19;20075;-67
2023/04/06 10:14:54;;;;;;;12.75;7.78;;;;;;;;;;7394213;19;20003;-68
2023/04/06 10:17:20;;;;;;;13.02;7.72;;;;;;;;;;7389129;19;20421;-68
2023/04/06 10:20:17;;;;;;;14.75;8.07;;;;;;;;;;7392355;19;20070;-68
2023/04/06 10:22:59;;;;;;;12.63;7.70;;;;;;;;;;7394650;19;20014;-68
2023/04/06 10:25:32;;;;;;;13.48;8.48;;;;;;;;;;7395465;19;20118;-68
2023/04/06 10:28:08;;;;;;;12.90;8.43;;;;;;;;;;7397485;19;20013;-67
2023/04/06 10:30:41;;;;;;;14.80;8.95;;;;;;;;;;7396648;19;20066;-67
2023/04/06 10:33:20;;;;;;;14.07;9.18;;;;;;;;;;7394551;19;20021;-68
2023/04/06 10:35:46;;;;;;;18.67;8.63;;;;;;;;;;7394721;19;20346;-68
2023/04/06 10:38:13;;;;;;;14.98;8.75;;;;;;;;;;7396708;19;20324;-68
2023/04/06 10:40:40;;;;;;;16.27;8.77;;;;;;;;;;7395134;19;20002;-67
2023/04/06 10:43:12;;;;;;;13.32;8.05;;;;;;;;;;7393907;19;20009;-67
2023/04/06 10:45:38;;;;;;;16.73;8.73;;;;;;;;;;7394433;19;20019;-67
2023/04/06 10:48:17;;;;;;;17.85;8.93;;;;;;;;;;7395981;19;20006;-67
2023/04/06 10:50:51;;;;;;;14.52;7.97;;;;;;;;;;7394383;19;20015;-67
2023/04/06 10:53:25;;;;;;;14.27;8.52;;;;;;;;;;7394071;19;19999;-67
2023/04/06 10:55:51;;;;;;;14.25;8.25;;;;;;;;;;7392514;19;20106;-68
2023/04/06 10:58:17;;;;;;;13.35;8.32;;;;;;;;;;7396002;19;20488;-68
2023/04/06 11:00:47;;;;;;;13.15;7.97;;;;;;;;;;7393970;19;20016;-67
2023/04/06 11:03:13;;;;;;;14.20;8.47;;;;;;;;;;7395907;19;20007;-67
2023/04/06 11:05:42;;;;;;;13.95;8.05;;;;;;;;;;7395109;19;20471;-69
2023/04/06 11:08:08;;;;;;;16.75;8.48;;;;;;;;;;7395291;19;20375;-68
2023/04/06 11:10:33;;;;;;;15.40;9.35;;;;;;;;;;7393672;19;20003;-68
2023/04/06 11:12:59;;;;;;;17.48;8.63;;;;;;;;;;7396908;19;20032;-68
2023/04/06 11:15:24;;;;;;;14.98;8.40;;;;;;;;;;7394304;19;20118;-68
2023/04/06 11:17:49;;;;;;;15.57;8.45;;;;;;;;;;7392724;19;20019;-69
2023/04/06 11:20:15;;;;;;;15.43;8.50;;;;;;;;;;7392874;19;20494;-68
2023/04/06 11:22:53;;;;;;;16.67;8.50;;;;;;;;;;7396067;19;20041;-69
2023/04/06 11:25:19;;;;;;;16.83;9.02;;;;;;;;;;7396270;19;20003;-68
2023/04/06 11:27:46;;;;;;;15.20;8.23;;;;;;;;;;7392005;19;20018;-68
2023/04/06 11:30:12;;;;;;;14.63;7.72;;;;;;;;;;7391208;19;20519;-69
2023/04/06 11:32:42;;;;;;;19.25;7.93;;;;;;;;;;7392784;19;20397;-70
2023/04/06 11:35:11;;;;;;;15.23;9.23;;;;;;;;;;7392460;19;20010;-69
2023/04/06 11:37:36;;;;;;;15.70;8.35;;;;;;;;;;7391032;19;20713;-68
2023/04/06 11:40:02;;;;;;;12.63;7.10;;;;;;;;;;7393718;19;20015;-68
2023/04/06 11:42:29;;;;;;;14.43;8.18;;;;;;;;;;7393916;19;20013;-68
2023/04/06 11:44:59;;;;;;;16.25;8.52;;;;;;;;;;7395113;19;20050;-68
2023/04/06 11:47:29;;;;;;;14.47;8.00;;;;;;;;;;7392457;19;20003;-68
2023/04/06 11:49:55;;;;;;;14.68;7.75;;;;;;;;;;7393301;19;20271;-69
2023/04/06 11:52:24;;;;;;;15.32;7.05;;;;;;;;;;7390403;19;20002;-68
2023/04/06 11:54:51;;;;;;;13.70;7.43;;;;;;;;;;7395155;19;20012;-68
2023/04/06 11:57:17;;;;;;;13.00;7.15;;;;;;;;;;7389735;19;19998;-68
2023/04/06 11:59:43;;;;;;;12.07;7.32;;;;;;;;;;7393447;19;20013;-68
2023/04/06 12:02:11;;;;;;;16.65;7.72;;;;;;;;;;7391292;19;20035;-66
2023/04/06 12:04:37;;;;;;;16.58;8.32;;;;;;;;;;7395085;19;19995;-67
2023/04/06 12:07:03;;;;;;;13.25;7.63;;;;;;;;;;7396264;19;19998;-68
2023/04/06 12:09:28;;;;;;;20.17;7.43;;;;;;;;;;7393097;19;20002;-68
2023/04/06 12:11:54;;;;;;;14.60;7.72;;;;;;;;;;7389693;19;20113;-68
2023/04/06 12:14:19;;;;;;;15.73;8.10;;;;;;;;;;7391477;19;20009;-68
2023/04/06 12:16:45;;;;;;;13.90;8.30;;;;;;;;;;7392103;19;19999;-68
2023/04/06 12:19:11;;;;;;;13.35;7.65;;;;;;;;;;7392042;19;19994;-68
2023/04/06 12:21:40;;;;;;;15.48;7.97;;;;;;;;;;7389527;19;20022;-68
2023/04/06 12:24:06;;;;;;;14.77;8.10;;;;;;;;;;7392304;19;19994;-69
2023/04/06 12:26:32;;;;;;;12.35;6.90;;;;;;;;;;7392271;19;20304;-69
2023/04/06 12:29:06;;;;;;;12.85;7.70;;;;;;;;;;7392283;19;20006;-68
2023/04/06 12:31:32;;;;;;;16.40;7.68;;;;;;;;;;7391455;19;20438;-68
2023/04/06 12:33:58;;;;;;;14.77;7.68;;;;;;;;;;7388916;19;19998;-70
2023/04/06 12:36:23;;;;;;;13.82;7.38;;;;;;;;;;7387507;19;19998;-69
2023/04/06 12:38:51;;;;;;;10.65;6.72;;;;;;;;;;7388283;19;20019;-69
2023/04/06 12:41:17;;;;;;;12.32;7.18;;;;;;;;;;7391161;19;20005;-71
2023/04/06 12:43:43;;;;;;;13.60;6.65;;;;;;;;;;7392898;19;20023;-70
2023/04/06 12:46:09;;;;;;;12.02;6.53;;;;;;;;;;7392922;19;19994;-71
2023/04/06 12:48:36;;;;;;;12.98;6.75;;;;;;;;;;7389845;19;19998;-70
2023/04/06 12:51:03;;;;;;;13.15;7.05;;;;;;;;;;7391514;19;20379;-70
2023/04/06 12:53:29;;;;;;;13.70;6.97;;;;;;;;;;7390488;19;19998;-71
2023/04/06 12:55:55;;;;;;;11.43;6.78;;;;;;;;;;7392228;19;20006;-71
2023/04/06 12:58:22;;;;;;;11.77;6.72;;;;;;;;;;7392259;19;20468;-71
2023/04/06 13:00:48;;;;;;;12.52;6.47;;;;;;;;;;7391474;19;20002;-69
2023/04/06 13:03:14;;;;;;;12.35;6.40;;;;;;;;;;7391387;19;20058;-70
2023/04/06 13:05:50;;;;;;;13.95;6.22;;;;;;;;;;7391473;19;20015;-71
2023/04/06 13:08:18;;;;;;;12.88;6.38;;;;;;;;;;7391726;19;20012;-70
2023/04/06 13:10:44;;;;;;;11.98;6.72;;;;;;;;;;7391637;19;20007;-71
2023/04/06 13:13:10;;;;;;;10.90;5.80;;;;;;;;;;7389803;19;20001;-70
2023/04/06 13:15:36;;;;;;;12.45;6.25;;;;;;;;;;7392184;19;19998;-70
2023/04/06 13:18:02;;;;;;;11.93;6.38;;;;;;;;;;7391257;19;20472;-71
2023/04/06 13:20:27;;;;;;;11.40;6.25;;;;;;;;;;7391081;19;20084;-70
2023/04/06 13:22:53;;;;;;;11.50;6.30;;;;;;;;;;7392130;19;19998;-71
2023/04/06 13:25:18;;;;;;;11.02;5.60;;;;;;;;;;7391293;19;20003;-69
2023/04/06 13:27:46;;;;;;;12.57;6.32;;;;;;;;;;7392211;19;20006;-71
2023/04/06 13:30:12;;;;;;;10.88;5.50;;;;;;;;;;7389304;19;19997;-68
2023/04/06 13:32:37;;;;;;;11.82;5.53;;;;;;;;;;7390854;19;20002;-68
2023/04/06 13:35:03;;;;;;;12.20;6.43;;;;;;;;;;7389048;19;20022;-69
2023/04/06 13:37:29;;;;;;;11.98;5.82;;;;;;;;;;7387337;19;20022;-67
2023/04/06 13:39:54;;;;;;;10.88;5.78;;;;;;;;;;7388604;19;20037;-68
2023/04/06 13:42:20;;;;;;;11.13;5.78;;;;;;;;;;7388112;19;19994;-67
2023/04/06 13:44:46;;;;;;;11.00;5.90;;;;;;;;;;7390322;19;20432;-67
2023/04/06 13:47:12;;;;;;;11.88;5.90;;;;;;;;;;7390680;19;19998;-69
2023/04/06 13:49:37;;;;;;;11.55;5.60;;;;;;;;;;7390165;19;19999;-67
2023/04/06 13:52:03;;;;;;;10.52;6.03;;;;;;;;;;7387944;19;19999;-66
2023/04/06 13:54:28;;;;;;;12.32;6.40;;;;;;;;;;7390305;19;20002;-68
2023/04/06 13:56:54;;;;;;;12.40;6.43;;;;;;;;;;7388508;19;19990;-67
2023/04/06 13:59:20;;;;;;;8.63;5.70;;;;;;;;;;7390026;19;20001;-67
2023/04/06 14:01:45;;;;;;;11.85;5.70;;;;;;;;;;7387799;19;20002;-68
2023/04/06 14:04:10;;;;;;;14.07;6.03;;;;;;;;;;7389187;19;20005;-68
2023/04/06 14:06:36;;;;;;;12.82;6.05;;;;;;;;;;7390252;19;20463;-68
2023/04/06 14:09:02;;;;;;;10.45;5.93;;;;;;;;;;7389894;19;20062;-68
2023/04/06 14:11:27;;;;;;;11.15;5.50;;;;;;;;;;7386522;19;19999;-68
2023/04/06 14:13:53;;;;;;;14.07;6.20;;;;;;;;;;7388969;19;19998;-68
2023/04/06 14:16:19;;;;;;;9.50;5.45;;;;;;;;;;7387873;19;20008;-68
2023/04/06 14:18:45;;;;;;;9.77;5.32;;;;;;;;;;7389397;19;19995;-68
2023/04/06 14:21:10;;;;;;;11.35;5.35;;;;;;;;;;7380543;19;20033;-68
2023/04/06 14:23:36;;;;;;;8.95;4.88;;;;;;;;;;7386617;19;19999;-68
2023/04/06 14:26:08;;;;;;;8.23;4.85;;;;;;;;;;7387068;19;20002;-68